Time;durP1;ratioP1;P1;durP2;ratioP2;P2;SDS_P1;SDS_P2;PMS_P1;PMS_P2;Temp;Humidity;BMP_temperature;BMP_pressure;BME280_temperature;BME280_humidity;BME280_pressure;Samples;Min_cycle;Max_cycle;Signal;HPM_P1;HPM_P2
2021/12/25 00:02:07;;;;;;;7.93;1.73;;;-0.30;99.90;;;;;;5072969;28;20123;-59
2021/12/25 00:04:34;;;;;;;8.13;1.70;;;;;;;;;;5027923;28;20129;-58
2021/12/25 00:07:00;;;;;;;4.88;1.35;;;;;;;;;;5061163;28;20044;-58
2021/12/25 00:09:26;;;;;;;8.48;1.58;;;;;;;;;;5052774;28;20041;-58
2021/12/25 00:11:52;;;;;;;8.85;1.85;;;-0.70;99.90;;;;;;5052707;28;20055;-59
2021/12/25 00:14:18;;;;;;;6.93;1.40;;;;;;;;;;5052362;28;20430;-58
2021/12/25 00:16:44;;;;;;;7.45;1.50;;;;;;;;;;5052344;28;20041;-59
2021/12/25 00:19:10;;;;;;;5.80;1.50;;;;;;;;;;5052529;28;20403;-59
2021/12/25 00:21:36;;;;;;;7.25;1.45;;;;;;;;;;5033931;28;20048;-60
2021/12/25 00:24:03;;;;;;;5.25;1.35;;;;;;;;;;5052600;28;20041;-59
2021/12/25 00:26:56;;;;;;;10.40;2.00;;;-0.40;99.90;;;;;;5052209;28;20372;-59
2021/12/25 00:29:51;;;;;;;6.63;1.63;;;;;;;;;;5034529;28;20044;-59
2021/12/25 00:34:46;;;;;;;5.25;2.00;;;;;;;;;;5051736;28;20068;-59
2021/12/25 00:37:12;;;;;;;8.23;1.50;;;;;;;;;;5052082;28;20418;-59
2021/12/25 00:39:38;;;;;;;7.78;1.58;;;;;;;;;;5052711;28;20037;-59
2021/12/25 00:42:05;;;;;;;9.05;1.52;;;-0.60;99.90;;;;;;5058772;28;20131;-58
2021/12/25 00:44:31;;;;;;;4.90;1.35;;;-0.60;99.90;;;;;;5071110;28;20036;-58
2021/12/25 00:46:57;;;;;;;7.80;1.63;;;;;;;;;;5071813;28;20115;-59
2021/12/25 00:49:24;;;;;;;4.03;1.20;;;;;;;;;;5067181;28;20068;-59
2021/12/25 00:51:50;;;;;;;5.63;1.52;;;;;;;;;;5052078;28;20040;-59
2021/12/25 00:54:16;;;;;;;5.15;1.20;;;-0.60;99.90;;;;;;5051526;28;20484;-60
2021/12/25 00:56:42;;;;;;;6.22;2.45;;;-0.60;99.90;;;;;;5051896;28;20041;-59
2021/12/25 00:59:08;;;;;;;3.97;1.33;;;;;;;;;;5051362;28;20092;-58
2021/12/25 01:01:34;;;;;;;7.75;1.55;;;;;;;;;;5071764;28;20040;-60
2021/12/25 01:04:00;;;;;;;5.78;1.60;;;-0.60;99.90;;;;;;5071890;28;20048;-63
2021/12/25 01:06:26;;;;;;;6.07;1.38;;;;;;;;;;5071344;28;20041;-59
2021/12/25 01:08:52;;;;;;;9.43;2.15;;;-0.70;99.90;;;;;;5071987;28;20048;-59
2021/12/25 01:11:18;;;;;;;6.43;1.40;;;;;;;;;;5052135;28;20041;-59
2021/12/25 01:13:51;;;;;;;3.75;1.30;;;;;;;;;;5051689;28;20041;-59
2021/12/25 01:19:35;;;;;;;5.65;1.73;;;;;;;;;;5051171;28;20040;-59
2021/12/25 01:22:08;;;;;;;5.57;1.30;;;;;;;;;;5045501;28;20049;-59
2021/12/25 01:40:45;;;;;;;7.28;1.50;;;-0.90;99.90;;;;;;5050881;28;20055;-62
2021/12/25 01:48:41;;;;;;;6.38;1.42;;;;;;;;;;5051405;28;19917;-60
2021/12/25 01:51:07;;;;;;;8.27;1.40;;;;;;;;;;5050431;28;20041;-61
2021/12/25 01:53:33;;;;;;;5.75;1.80;;;-1.20;99.90;;;;;;5070838;28;20440;-62
2021/12/25 01:56:00;;;;;;;7.78;2.25;;;-0.50;99.90;;;;;;5051777;28;20044;-61
2021/12/25 01:58:26;;;;;;;5.85;1.48;;;-1.00;99.90;;;;;;5071087;28;20040;-61
2021/12/25 02:00:54;;;;;;;6.53;1.30;;;-0.90;99.90;;;;;;5055465;28;20037;-62
2021/12/25 02:03:23;;;;;;;4.60;1.38;;;;;;;;;;5068463;28;20051;-61
2021/12/25 02:05:49;;;;;;;5.05;1.42;;;;;;;;;;5070556;28;20047;-62
2021/12/25 02:08:16;;;;;;;7.00;2.25;;;;;;;;;;5070678;28;20591;-62
2021/12/25 02:10:42;;;;;;;5.32;1.70;;;;;;;;;;5056962;28;20403;-62
2021/12/25 02:13:10;;;;;;;6.03;1.10;;;;;;;;;;5066943;28;20042;-62
2021/12/25 02:15:36;;;;;;;4.38;1.25;;;;;;;;;;5052346;28;20414;-62
2021/12/25 02:20:36;;;;;;;5.30;1.60;;;;;;;;;;5050044;28;20076;-62
2021/12/25 02:23:09;;;;;;;3.97;1.10;;;-0.40;99.90;;;;;;5050049;28;20049;-61
2021/12/25 02:25:35;;;;;;;5.82;1.40;;;-0.60;99.90;;;;;;5050508;28;20430;-63
2021/12/25 02:28:02;;;;;;;6.63;1.40;;;;;;;;;;5049532;28;20355;-62
2021/12/25 02:30:28;;;;;;;8.43;1.73;;;;;;;;;;5050681;28;20570;-61
2021/12/25 02:32:55;;;;;;;7.13;1.17;;;;;;;;;;5015523;28;20467;-62
2021/12/25 02:35:21;;;;;;;4.38;1.00;;;;;;;;;;5032095;28;20045;-61
2021/12/25 02:37:46;;;;;;;5.28;1.25;;;-0.60;99.90;;;;;;5049364;28;20045;-62
2021/12/25 02:40:14;;;;;;;4.82;1.40;;;;;;;;;;5050656;28;20094;-60
2021/12/25 02:42:40;;;;;;;6.80;1.20;;;-0.80;99.90;;;;;;5050167;28;20570;-62
2021/12/25 02:45:14;;;;;;;4.65;1.20;;;;;;;;;;5049122;28;20041;-61
2021/12/25 02:47:42;;;;;;;5.25;1.00;;;;;;;;;;5049678;28;20041;-62
2021/12/25 02:50:09;;;;;;;4.90;1.15;;;;;;;;;;5049950;28;20051;-61
2021/12/25 02:52:35;;;;;;;5.15;1.10;;;;;;;;;;5050290;28;20033;-62
2021/12/25 02:55:01;;;;;;;4.15;1.00;;;;;;;;;;5049479;28;20060;-62
2021/12/25 02:57:27;;;;;;;4.90;0.90;;;-1.10;99.90;;;;;;5050002;28;20044;-61
2021/12/25 02:59:53;;;;;;;2.88;1.02;;;;;;;;;;5049862;28;20422;-62
2021/12/25 03:02:19;;;;;;;2.20;0.80;;;;;;;;;;5050215;28;20048;-62
2021/12/25 03:04:47;;;;;;;9.48;1.23;;;;;;;;;;5049290;28;20072;-62
2021/12/25 03:07:13;;;;;;;3.00;0.85;;;;;;;;;;5026079;28;20732;-61
2021/12/25 03:09:40;;;;;;;3.53;1.10;;;;;;;;;;5062271;28;20123;-62
2021/12/25 03:12:11;;;;;;;2.75;1.00;;;;;;;;;;5053831;28;20049;-62
2021/12/25 03:14:50;;;;;;;4.43;1.40;;;;;;;;;;5053619;28;20048;-64
2021/12/25 03:17:16;;;;;;;4.10;0.90;;;-1.30;99.90;;;;;;5053686;28;20453;-62
2021/12/25 03:19:42;;;;;;;3.60;0.93;;;;;;;;;;5053634;28;20040;-62
2021/12/25 03:22:08;;;;;;;5.38;1.27;;;;;;;;;;5053986;28;20406;-62
2021/12/25 03:24:34;;;;;;;2.50;0.90;;;;;;;;;;5052795;28;20032;-62
2021/12/25 03:27:00;;;;;;;2.28;0.75;;;;;;;;;;5053604;28;20578;-62
2021/12/25 03:29:27;;;;;;;4.45;1.30;;;;;;;;;;5035545;28;20123;-62
2021/12/25 03:31:54;;;;;;;4.28;0.90;;;;;;;;;;5051558;28;20528;-61
2021/12/25 03:34:22;;;;;;;3.30;0.75;;;-2.00;99.90;;;;;;5054994;28;20512;-61
2021/12/25 03:36:48;;;;;;;3.78;1.13;;;;;;;;;;5073480;28;20036;-62
2021/12/25 03:39:15;;;;;;;2.83;0.70;;;;;;;;;;5073466;28;20091;-61
2021/12/25 03:41:41;;;;;;;1.70;0.60;;;;;;;;;;5072712;28;20110;-61
2021/12/25 03:44:07;;;;;;;4.80;0.73;;;;;;;;;;5053103;28;20449;-61
2021/12/25 03:46:38;;;;;;;2.13;0.90;;;-2.20;99.90;;;;;;5072055;28;20422;-61
2021/12/25 03:49:14;;;;;;;4.38;0.90;;;;;;;;;;5073647;28;20098;-61
2021/12/25 04:00:04;;;;;;;2.60;0.70;;;-2.20;99.90;;;;;;5033042;28;20120;-61
2021/12/25 04:02:35;;;;;;;1.88;0.65;;;-2.40;99.90;;;;;;5038685;28;20514;-61
2021/12/25 04:05:03;;;;;;;1.23;0.55;;;;;;;;;;5067656;28;20037;-61
2021/12/25 04:10:28;;;;;;;2.22;0.80;;;;;;;;;;5017477;28;20414;-61
2021/12/25 04:12:55;;;;;;;3.58;0.80;;;-2.30;99.90;;;;;;5062628;28;20106;-61
2021/12/25 04:15:21;;;;;;;1.90;0.47;;;;;;;;;;5017933;28;20530;-60
2021/12/25 04:17:47;;;;;;;3.05;0.63;;;;;;;;;;5052092;28;20041;-62
2021/12/25 04:20:13;;;;;;;2.63;0.90;;;;;;;;;;5052563;28;20041;-61
2021/12/25 04:22:51;;;;;;;1.70;0.70;;;-2.40;99.90;;;;;;5052115;28;20388;-61
2021/12/25 04:25:26;;;;;;;3.17;0.93;;;;;;;;;;5069372;28;20040;-61
2021/12/25 04:27:52;;;;;;;3.30;0.63;;;;;;;;;;5072003;28;20072;-61
2021/12/25 04:30:28;;;;;;;1.58;0.55;;;-2.60;99.90;;;;;;5059773;28;20087;-61
2021/12/25 05:05:47;;;;;;;1.83;0.70;;;-2.80;99.90;;;;;;5051664;28;20495;-59
2021/12/25 05:08:12;;;;;;;2.38;0.77;;;-2.90;99.90;;;;;;5033689;28;20067;-60
2021/12/25 05:10:38;;;;;;;2.40;0.63;;;;;;;;;;5033041;28;20126;-61
2021/12/25 05:13:04;;;;;;;2.75;0.85;;;;;;;;;;5051881;28;20045;-60
2021/12/25 05:15:30;;;;;;;4.45;0.90;;;;;;;;;;5050755;28;20499;-59
2021/12/25 05:17:56;;;;;;;4.78;1.92;;;;;;;;;;5034069;28;20040;-60
2021/12/25 05:20:23;;;;;;;2.13;1.15;;;;;;;;;;5051114;28;20052;-61
2021/12/25 05:22:49;;;;;;;2.75;0.80;;;;;;;;;;5051473;28;20411;-60
2021/12/25 05:25:15;;;;;;;3.40;0.88;;;-3.10;99.90;;;;;;5050351;28;20044;-60
2021/12/25 05:27:42;;;;;;;1.85;0.70;;;;;;;;;;5050098;28;20052;-60
2021/12/25 05:30:08;;;;;;;1.65;0.73;;;-3.10;99.90;;;;;;5066214;28;20042;-59
2021/12/25 05:32:33;;;;;;;2.70;0.70;;;-3.00;99.90;;;;;;5053588;28;20044;-60
2021/12/25 05:34:59;;;;;;;2.38;0.77;;;;;;;;;;5070527;28;20086;-60
2021/12/25 05:37:26;;;;;;;3.72;0.85;;;;;;;;;;5058252;28;20051;-61
2021/12/25 05:39:52;;;;;;;2.65;0.70;;;;;;;;;;5051064;28;20315;-59
2021/12/25 05:42:20;;;;;;;1.95;1.25;;;-2.90;99.90;;;;;;5050622;28;20037;-60
2021/12/25 05:44:46;;;;;;;1.15;0.60;;;;;;;;;;5050172;28;20040;-60
2021/12/25 05:47:13;;;;;;;2.28;0.82;;;-3.10;99.90;;;;;;5049781;28;20423;-61
2021/12/25 05:49:39;;;;;;;2.17;0.90;;;;;;;;;;5051016;28;20055;-61
2021/12/25 05:52:05;;;;;;;3.65;0.77;;;-3.00;99.90;;;;;;5050868;28;20123;-59
2021/12/25 05:54:31;;;;;;;4.57;0.75;;;;;;;;;;5050026;28;20115;-60
2021/12/25 05:56:57;;;;;;;2.25;0.75;;;-2.90;99.90;;;;;;5049622;28;20479;-60
2021/12/25 05:59:23;;;;;;;3.58;0.80;;;;;;;;;;5031812;28;20049;-60
2021/12/25 06:01:49;;;;;;;3.03;0.80;;;;;;;;;;5050169;28;20083;-59
2021/12/25 06:04:15;;;;;;;1.80;0.80;;;;;;;;;;5049388;28;20040;-61
2021/12/25 06:06:41;;;;;;;5.03;1.13;;;;;;;;;;5049893;28;20033;-60
2021/12/25 06:09:07;;;;;;;2.55;0.82;;;-3.00;99.90;;;;;;5066575;28;20395;-60
2021/12/25 06:11:34;;;;;;;4.57;0.90;;;;;;;;;;5070206;28;20052;-59
2021/12/25 06:14:09;;;;;;;2.22;0.73;;;;;;;;;;5070641;28;20048;-60
2021/12/25 06:16:36;;;;;;;1.55;0.70;;;-3.20;99.90;;;;;;5047450;28;20043;-61
2021/12/25 06:19:05;;;;;;;2.17;0.93;;;;;;;;;;5050862;28;20056;-61
2021/12/25 06:21:31;;;;;;;2.33;0.80;;;-3.20;99.90;;;;;;5050354;28;20664;-60
2021/12/25 06:24:00;;;;;;;3.67;0.80;;;-3.20;99.90;;;;;;5050326;28;20068;-60
2021/12/25 06:26:26;;;;;;;3.05;0.75;;;-3.30;99.90;;;;;;5048877;28;20099;-60
2021/12/25 06:28:51;;;;;;;2.80;0.63;;;-3.30;99.90;;;;;;5054858;28;20037;-58
2021/12/25 06:31:17;;;;;;;2.90;0.73;;;;;;;;;;5070735;28;20060;-60
2021/12/25 06:33:43;;;;;;;3.55;1.00;;;;;;;;;;5069803;28;20071;-60
2021/12/25 06:36:09;;;;;;;5.05;1.52;;;;;;;;;;5069235;28;20098;-60
2021/12/25 06:38:38;;;;;;;3.05;1.10;;;;;;;;;;5049573;28;20032;-59
2021/12/25 06:41:07;;;;;;;2.90;0.80;;;;;;;;;;5050218;28;20041;-59
2021/12/25 06:43:34;;;;;;;3.40;1.02;;;-3.30;99.90;;;;;;5050352;28;20041;-60
2021/12/25 06:45:59;;;;;;;5.65;1.90;;;-3.10;99.90;;;;;;5049212;28;20037;-60
2021/12/25 06:48:26;;;;;;;4.57;1.10;;;;;;;;;;5060271;28;20036;-59
2021/12/25 06:50:52;;;;;;;3.13;1.08;;;;;;;;;;5069801;28;20037;-60
2021/12/25 06:53:18;;;;;;;4.18;1.02;;;;;;;;;;5069854;28;20395;-59
2021/12/25 06:55:44;;;;;;;2.95;0.90;;;-3.30;99.90;;;;;;5051684;28;20040;-60
2021/12/25 06:58:10;;;;;;;3.30;1.10;;;;;;;;;;5052318;28;20109;-59
2021/12/25 07:00:36;;;;;;;4.38;1.10;;;;;;;;;;5048916;28;20041;-59
2021/12/25 07:03:02;;;;;;;5.93;1.58;;;-3.30;99.90;;;;;;5048619;28;20045;-59
2021/12/25 07:05:28;;;;;;;4.47;1.25;;;;;;;;;;5050771;28;20107;-60
2021/12/25 07:07:54;;;;;;;4.97;1.30;;;;;;;;;;5069281;28;20119;-60
2021/12/25 07:10:21;;;;;;;4.22;1.25;;;;;;;;;;5070164;28;20574;-59
2021/12/25 07:12:49;;;;;;;4.80;1.67;;;;;;;;;;5069448;28;20037;-60
2021/12/25 07:15:15;;;;;;;4.72;1.42;;;;;;;;;;5063391;28;20072;-60
2021/12/25 07:17:41;;;;;;;4.70;1.38;;;;;;;;;;5062006;28;20075;-60
2021/12/25 07:20:07;;;;;;;5.82;1.25;;;;;;;;;;5069399;28;20044;-60
2021/12/25 07:22:33;;;;;;;3.47;0.90;;;-3.20;99.90;;;;;;5070014;28;20410;-60
2021/12/25 07:25:00;;;;;;;7.07;1.20;;;;;;;;;;5064641;28;20029;-61
2021/12/25 07:27:25;;;;;;;5.95;1.65;;;-3.30;99.90;;;;;;5048725;28;20045;-59
2021/12/25 07:29:51;;;;;;;4.07;1.20;;;;;;;;;;5050080;28;20040;-59
2021/12/25 07:32:17;;;;;;;3.55;1.20;;;;;;;;;;5049770;28;20037;-60
2021/12/25 07:34:46;;;;;;;3.55;1.20;;;;;;;;;;5030470;28;20048;-60
2021/12/25 07:37:13;;;;;;;3.97;1.20;;;;;;;;;;5066041;28;20045;-60
2021/12/25 07:39:39;;;;;;;4.78;1.00;;;;;;;;;;5049038;28;20608;-61
2021/12/25 07:42:05;;;;;;;3.28;0.90;;;-3.10;99.90;;;;;;5046420;28;20048;-60
2021/12/25 07:44:31;;;;;;;3.33;0.90;;;-3.10;99.90;;;;;;5028381;28;20108;-60
2021/12/25 07:46:57;;;;;;;3.55;1.00;;;;;;;;;;5046711;28;20037;-58
2021/12/25 07:49:23;;;;;;;2.42;0.80;;;;;;;;;;5047925;28;20049;-61
2021/12/25 07:51:49;;;;;;;3.88;1.17;;;;;;;;;;5047284;28;20044;-59
2021/12/25 07:54:15;;;;;;;5.40;1.60;;;-2.40;99.90;;;;;;5059700;28;20443;-60
2021/12/25 07:56:41;;;;;;;8.07;2.80;;;;;;;;;;5052927;28;20083;-61
2021/12/25 07:59:07;;;;;;;6.22;1.80;;;;;;;;;;5034471;28;20049;-60
2021/12/25 08:01:35;;;;;;;6.47;2.10;;;;;;;;;;5051876;28;20045;-60
2021/12/25 08:04:02;;;;;;;6.55;1.83;;;;;;;;;;5041174;28;20045;-61
2021/12/25 08:06:28;;;;;;;4.82;1.20;;;;;;;;;;5070983;28;20032;-60
2021/12/25 08:08:56;;;;;;;4.53;1.20;;;;;;;;;;5054988;28;20032;-61
2021/12/25 08:11:23;;;;;;;5.45;1.30;;;;;;;;;;5073009;28;20101;-60
2021/12/25 08:13:49;;;;;;;2.72;0.85;;;;;;;;;;5036949;28;20123;-60
2021/12/25 08:16:15;;;;;;;3.95;1.17;;;;;;;;;;5051406;28;20080;-60
2021/12/25 08:18:40;;;;;;;4.22;1.00;;;;;;;;;;5052997;28;20474;-60
2021/12/25 08:21:06;;;;;;;4.25;1.63;;;;;;;;;;5052711;28;20051;-60
2021/12/25 08:23:32;;;;;;;3.88;1.20;;;-3.20;99.90;;;;;;5051809;28;20044;-59
2021/12/25 08:25:59;;;;;;;2.92;1.00;;;;;;;;;;5051719;28;20384;-59
2021/12/25 08:28:25;;;;;;;3.22;0.98;;;;;;;;;;5052793;28;20041;-59
2021/12/25 08:30:51;;;;;;;3.47;0.95;;;-2.80;99.90;;;;;;5052974;28;20120;-60
2021/12/25 08:33:17;;;;;;;4.43;1.10;;;;;;;;;;5051311;28;20040;-59
2021/12/25 08:35:43;;;;;;;2.45;0.75;;;;;;;;;;5051220;28;20037;-60
2021/12/25 08:38:11;;;;;;;5.03;1.10;;;;;;;;;;5052793;28;20041;-60
2021/12/25 08:40:38;;;;;;;2.55;0.82;;;-3.10;99.90;;;;;;5052200;28;20045;-60
2021/12/25 08:43:05;;;;;;;3.55;0.90;;;;;;;;;;5032223;28;20041;-60
2021/12/25 08:45:49;;;;;;;4.30;1.10;;;;;;;;;;5050411;28;20045;-59
2021/12/25 08:48:26;;;;;;;3.60;1.10;;;;;;;;;;5052294;28;20047;-60
2021/12/25 08:50:54;;;;;;;3.70;0.88;;;;;;;;;;5051757;28;20510;-59
2021/12/25 08:53:21;;;;;;;2.88;0.80;;;;;;;;;;5051151;28;20120;-60
2021/12/25 08:55:47;;;;;;;4.20;1.10;;;;;;;;;;5051706;28;20133;-59
2021/12/25 08:58:14;;;;;;;2.97;1.25;;;;;;;;;;5052247;28;20049;-58
2021/12/25 09:00:40;;;;;;;4.10;1.30;;;;;;;;;;5050963;28;20037;-60
2021/12/25 09:03:06;;;;;;;4.47;1.08;;;;;;;;;;5028061;28;20095;-60
2021/12/25 09:05:32;;;;;;;3.17;0.98;;;;;;;;;;5013485;28;20033;-60
2021/12/25 09:07:58;;;;;;;2.85;0.77;;;;;;;;;;5031369;28;20040;-59
2021/12/25 09:10:27;;;;;;;4.53;1.20;;;;;;;;;;5059269;28;20037;-60
2021/12/25 09:12:53;;;;;;;2.63;0.80;;;-2.90;99.90;;;;;;5056767;28;20534;-60
2021/12/25 09:15:19;;;;;;;3.08;1.10;;;;;;;;;;5033510;28;20069;-60
2021/12/25 09:17:46;;;;;;;4.32;0.90;;;;;;;;;;5033432;28;20041;-60
2021/12/25 09:20:15;;;;;;;4.82;1.08;;;;;;;;;;5051193;28;20041;-60
2021/12/25 09:22:41;;;;;;;2.40;1.15;;;;;;;;;;5050910;28;20639;-60
2021/12/25 09:25:08;;;;;;;3.60;0.90;;;;;;;;;;5051233;28;20076;-60
2021/12/25 09:27:34;;;;;;;3.92;0.93;;;-2.90;99.90;;;;;;5051033;28;20033;-59
2021/12/25 09:30:00;;;;;;;3.35;0.90;;;;;;;;;;5050210;28;20106;-61
2021/12/25 09:32:26;;;;;;;4.78;1.20;;;-2.60;99.90;;;;;;5045797;28;20052;-60
2021/12/25 09:34:52;;;;;;;4.93;1.10;;;;;;;;;;5050151;28;20410;-58
2021/12/25 09:37:18;;;;;;;3.80;1.00;;;-2.70;99.90;;;;;;5051065;28;20403;-60
2021/12/25 09:39:45;;;;;;;3.33;1.33;;;;;;;;;;5050579;28;20072;-60
2021/12/25 09:42:11;;;;;;;5.05;2.00;;;-2.80;99.90;;;;;;5066801;28;20040;-59
2021/12/25 09:44:37;;;;;;;10.80;9.00;;;;;;;;;;5022784;28;20037;-59
2021/12/25 09:47:03;;;;;;;9.02;3.35;;;;;;;;;;5049256;28;20043;-60
2021/12/25 09:49:29;;;;;;;5.03;1.85;;;;;;;;;;5023676;28;20041;-59
2021/12/25 09:51:55;;;;;;;6.60;2.75;;;;;;;;;;5051054;28;20037;-59
2021/12/25 09:54:21;;;;;;;5.05;1.98;;;;;;;;;;5049981;28;20041;-60
2021/12/25 09:56:49;;;;;;;5.35;2.20;;;;;;;;;;5048224;28;20087;-58
2021/12/25 09:59:15;;;;;;;4.93;1.80;;;;;;;;;;5032547;28;20048;-59
2021/12/25 10:01:45;;;;;;;5.32;1.40;;;-2.40;99.90;;;;;;5038719;28;20483;-60
2021/12/25 10:04:12;;;;;;;5.38;1.70;;;;;;;;;;5048395;28;20112;-60
2021/12/25 10:06:40;;;;;;;7.18;1.92;;;;;;;;;;5052523;28;20044;-60
2021/12/25 10:09:16;;;;;;;11.35;2.65;;;;;;;;;;5048192;28;20411;-59
2021/12/25 10:12:05;;;;;;;5.18;1.60;;;;;;;;;;5048914;28;20503;-60
2021/12/25 10:14:32;;;;;;;5.47;1.40;;;-2.30;99.90;;;;;;5032322;28;20044;-60
2021/12/25 10:16:58;;;;;;;4.30;1.67;;;-2.20;99.90;;;;;;5043248;28;20040;-59
2021/12/25 10:19:27;;;;;;;5.45;1.90;;;;;;;;;;5039751;28;20052;-60
2021/12/25 10:22:07;;;;;;;4.68;1.20;;;-1.90;99.90;;;;;;5048535;28;20050;-57
2021/12/25 10:24:41;;;;;;;6.18;1.27;;;;;;;;;;5050637;28;20060;-59
2021/12/25 10:27:15;;;;;;;5.15;1.00;;;;;;;;;;5050843;28;20129;-56
2021/12/25 10:29:41;;;;;;;6.00;1.30;;;;;;;;;;5052007;28;20048;-56
2021/12/25 10:32:21;;;;;;;3.80;1.15;;;;;;;;;;5047256;28;20182;-59
2021/12/25 10:34:48;;;;;;;4.97;1.30;;;;;;;;;;5047969;28;20044;-60
2021/12/25 10:37:15;;;;;;;5.55;1.65;;;;;;;;;;5053310;28;20757;-59
2021/12/25 10:39:41;;;;;;;4.50;1.38;;;;;;;;;;5050475;28;20181;-59
2021/12/25 10:42:12;;;;;;;5.40;1.30;;;-1.90;99.90;;;;;;5048998;28;20049;-56
2021/12/25 10:44:40;;;;;;;3.55;1.10;;;;;;;;;;5050407;28;20048;-57
2021/12/25 10:47:16;;;;;;;3.53;1.20;;;;;;;;;;5050042;28;20033;-59
2021/12/25 10:49:48;;;;;;;4.43;1.20;;;;;;;;;;5037195;28;20410;-58
2021/12/25 10:52:24;;;;;;;5.80;1.10;;;-1.40;99.90;;;;;;5051084;28;20041;-59
2021/12/25 10:54:56;;;;;;;5.05;1.08;;;-1.80;99.90;;;;;;5044939;28;20059;-58
2021/12/25 10:57:37;;;;;;;6.32;1.98;;;;;;;;;;5050064;28;20419;-59
2021/12/25 11:00:15;;;;;;;7.28;1.75;;;;;;;;;;5069879;28;20060;-57
2021/12/25 11:02:43;;;;;;;3.58;0.93;;;;;;;;;;5012288;28;20104;-57
2021/12/25 11:07:39;;;;;;;8.93;1.70;;;;;;;;;;5047212;28;20057;-56
2021/12/25 11:10:10;;;;;;;2.58;0.90;;;;;;;;;;5047853;28;20051;-59
2021/12/25 11:12:36;;;;;;;3.35;1.00;;;;;;;;;;5049160;28;20207;-59
2021/12/25 11:15:14;;;;;;;4.10;0.93;;;-1.60;99.90;;;;;;5048723;28;20064;-56
2021/12/25 11:17:41;;;;;;;5.32;1.20;;;;;;;;;;5049143;28;20045;-57
2021/12/25 11:20:16;;;;;;;6.72;2.00;;;;;;;;;;5050261;28;20509;-58
2021/12/25 11:22:52;;;;;;;2.65;1.00;;;-1.60;99.90;;;;;;5049559;28;20124;-58
2021/12/25 11:25:19;;;;;;;4.63;1.35;;;;;;;;;;5048851;28;20411;-58
2021/12/25 11:27:47;;;;;;;4.25;1.60;;;-1.80;99.90;;;;;;5050473;28;20037;-58
2021/12/25 11:30:13;;;;;;;2.88;1.00;;;-1.40;99.90;;;;;;5053423;28;20048;-59
2021/12/25 11:32:39;;;;;;;6.40;1.40;;;;;;;;;;5052963;28;20041;-60
2021/12/25 11:35:05;;;;;;;4.30;1.15;;;-1.40;99.90;;;;;;5052016;28;20080;-58
2021/12/25 11:37:32;;;;;;;3.45;1.00;;;;;;;;;;5053537;28;20115;-57
2021/12/25 11:39:58;;;;;;;5.00;1.25;;;-1.40;99.90;;;;;;5053192;28;20051;-58
2021/12/25 11:42:26;;;;;;;5.45;1.60;;;;;;;;;;5052734;28;20043;-57
2021/12/25 11:44:54;;;;;;;6.25;1.30;;;;;;;;;;5052277;28;20073;-60
2021/12/25 11:47:31;;;;;;;4.57;1.38;;;-0.90;99.90;;;;;;5053159;28;20037;-56
2021/12/25 11:49:59;;;;;;;4.82;1.40;;;-1.10;99.90;;;;;;5052686;28;20044;-55
2021/12/25 11:52:35;;;;;;;6.40;1.77;;;;;;;;;;5049043;28;20033;-57
2021/12/25 11:55:47;;;;;;;5.32;1.20;;;-0.80;99.90;;;;;;5044969;28;20330;-60
2021/12/25 11:58:50;;;;;;;5.35;1.30;;;;;;;;;;5051309;28;20086;-58
2021/12/25 12:01:19;;;;;;;3.25;1.05;;;-0.80;99.90;;;;;;4963241;28;20097;-58
2021/12/25 12:03:54;;;;;;;4.68;1.80;;;;;;;;;;5036883;28;20140;-57
2021/12/25 12:06:21;;;;;;;4.18;1.27;;;;;;;;;;5051177;28;20079;-58
2021/12/25 12:08:53;;;;;;;5.38;1.60;;;;;;;;;;5051467;28;20087;-59
2021/12/25 12:11:29;;;;;;;5.78;1.20;;;;;;;;;;5053055;28;20384;-56
2021/12/25 12:14:15;;;;;;;3.28;1.08;;;;;;;;;;5052098;28;20047;-55
2021/12/25 12:16:40;;;;;;;;;;;;;;;;;;5053065;28;20045;-57
2021/12/25 12:19:37;;;;;;;5.15;1.20;;;0.20;99.90;;;;;;5051507;28;19917;-58
2021/12/25 12:22:20;;;;;;;3.47;1.20;;;;;;;;;;5052308;28;20052;-58
2021/12/25 12:25:14;;;;;;;3.17;1.00;;;;;;;;;;5051598;28;20037;-57
2021/12/25 12:27:50;;;;;;;4.35;1.65;;;;;;;;;;5051022;28;20045;-58
2021/12/25 12:30:42;;;;;;;4.10;1.27;;;;;;;;;;5053014;28;20048;-58
2021/12/25 12:33:13;;;;;;;5.60;1.42;;;;;;;;;;5048154;28;20048;-59
2021/12/25 12:35:40;;;;;;;4.05;1.27;;;;;;;;;;5052251;28;20402;-60
2021/12/25 12:38:28;;;;;;;4.72;1.42;;;;;;;;;;5050744;28;20045;-60
2021/12/25 12:41:10;;;;;;;5.40;2.17;;;;;;;;;;5049178;28;20401;-60
2021/12/25 12:43:55;;;;;;;3.30;1.00;;;;;;;;;;5051925;28;20084;-60
2021/12/25 12:46:24;;;;;;;6.15;2.03;;;1.00;99.90;;;;;;5031902;28;20561;-59
2021/12/25 12:49:07;;;;;;;5.55;2.25;;;1.70;99.90;;;;;;5045689;28;20410;-58
2021/12/25 12:51:33;;;;;;;3.72;1.13;;;;;;;;;;5071286;28;20041;-59
2021/12/25 12:53:59;;;;;;;4.53;1.30;;;;;;;;;;5071824;28;20509;-59
2021/12/25 12:56:25;;;;;;;4.28;1.50;;;;;;;;;;5071727;28;20041;-59
2021/12/25 12:58:53;;;;;;;5.13;1.80;;;1.30;99.90;;;;;;5070246;28;20048;-59
2021/12/25 13:01:19;;;;;;;5.43;1.58;;;;;;;;;;5050759;28;20044;-60
2021/12/25 13:03:45;;;;;;;4.97;1.30;;;;;;;;;;5051666;28;20037;-58
2021/12/25 13:06:14;;;;;;;5.53;1.30;;;1.80;99.90;;;;;;5051498;28;20040;-59
2021/12/25 13:08:42;;;;;;;3.45;1.10;;;;;;;;;;5051367;28;20112;-59
2021/12/25 13:11:22;;;;;;;4.10;1.25;;;2.80;99.90;;;;;;5050642;28;20515;-59
2021/12/25 13:13:54;;;;;;;4.35;1.27;;;2.20;99.90;;;;;;5052090;28;20037;-59
2021/12/25 13:16:23;;;;;;;4.15;1.40;;;;;;;;;;5051416;28;20036;-59
2021/12/25 13:18:50;;;;;;;5.85;1.85;;;;;;;;;;5051943;28;20040;-59
2021/12/25 13:21:25;;;;;;;4.38;1.48;;;;;;;;;;5050220;28;20045;-59
2021/12/25 13:23:54;;;;;;;6.47;1.95;;;;;;;;;;5048240;28;20041;-59
2021/12/25 13:26:22;;;;;;;6.55;2.75;;;;;;;;;;5049770;28;20119;-60
2021/12/25 13:28:50;;;;;;;4.72;1.60;;;;;;;;;;5049714;28;20068;-60
2021/12/25 13:31:18;;;;;;;4.20;1.50;;;;;;;;;;5050786;28;20037;-60
2021/12/25 13:33:46;;;;;;;3.88;1.30;;;;;;;;;;5050876;28;20121;-60
2021/12/25 13:36:15;;;;;;;3.90;1.50;;;;;;;;;;5049551;28;20052;-59
2021/12/25 13:38:46;;;;;;;4.90;1.25;;;;;;;;;;5051715;28;20045;-59
2021/12/25 13:41:12;;;;;;;4.35;1.17;;;4.80;99.90;;;;;;5051359;28;20037;-59
2021/12/25 13:43:38;;;;;;;5.40;1.40;;;;;;;;;;5051507;28;20041;-60
2021/12/25 13:46:04;;;;;;;7.68;5.18;;;;;;;;;;5048929;28;20052;-60
2021/12/25 13:48:37;;;;;;;4.00;1.70;;;;;;;;;;5050934;28;20045;-61
2021/12/25 13:51:03;;;;;;;6.78;2.13;;;;;;;;;;5050064;28;20441;-61
2021/12/25 13:53:31;;;;;;;4.47;1.30;;;;;;;;;;5050417;28;20828;-61
2021/12/25 13:56:05;;;;;;;6.78;1.75;;;2.60;99.90;;;;;;5048867;28;20526;-61
2021/12/25 13:58:31;;;;;;;4.13;1.33;;;;;;;;;;5051108;28;20491;-61
2021/12/25 14:00:57;;;;;;;3.50;1.50;;;;;;;;;;5048985;28;20048;-61
2021/12/25 14:03:24;;;;;;;5.80;1.50;;;;;;;;;;5050266;28;20029;-61
2021/12/25 14:05:52;;;;;;;5.57;1.45;;;2.80;99.90;;;;;;5049551;28;20037;-61
2021/12/25 14:08:19;;;;;;;4.20;1.52;;;;;;;;;;5048983;28;20044;-62
2021/12/25 14:10:45;;;;;;;4.88;1.50;;;;;;;;;;5047961;28;20047;-62
2021/12/25 14:13:17;;;;;;;5.80;2.08;;;;;;;;;;5046208;28;20123;-62
2021/12/25 14:15:49;;;;;;;4.93;1.33;;;;;;;;;;5047736;28;20460;-62
2021/12/25 14:18:15;;;;;;;4.35;1.38;;;;;;;;;;5043653;28;20037;-62
2021/12/25 14:20:42;;;;;;;6.15;1.75;;;;;;;;;;5046005;28;20491;-62
2021/12/25 14:23:17;;;;;;;5.93;2.97;;;2.50;99.90;;;;;;5044732;28;20037;-62
2021/12/25 14:25:56;;;;;;;7.45;2.72;;;;;;;;;;5046435;28;20372;-62
2021/12/25 14:28:30;;;;;;;8.52;4.03;;;1.70;99.90;;;;;;5049960;28;20036;-62
2021/12/25 14:31:07;;;;;;;7.57;4.40;;;;;;;;;;5046483;28;20052;-62
2021/12/25 14:33:37;;;;;;;7.07;3.55;;;2.30;99.90;;;;;;5046304;28;20505;-62
2021/12/25 14:36:10;;;;;;;6.57;3.30;;;;;;;;;;5047153;28;20052;-62
2021/12/25 14:38:46;;;;;;;5.50;1.90;;;1.50;99.90;;;;;;5033793;28;20049;-61
2021/12/25 14:41:13;;;;;;;6.93;1.83;;;;;;;;;;5042491;28;20037;-61
2021/12/25 14:43:39;;;;;;;8.52;2.42;;;;;;;;;;5036088;28;20379;-61
2021/12/25 14:46:07;;;;;;;5.57;2.13;;;;;;;;;;5042504;28;20040;-62
2021/12/25 14:48:35;;;;;;;4.85;1.80;;;;;;;;;;5045902;28;20446;-61
2021/12/25 14:51:04;;;;;;;5.03;1.60;;;;;;;;;;5046754;28;20074;-62
2021/12/25 14:53:30;;;;;;;7.22;2.15;;;;;;;;;;5041214;28;20643;-62
2021/12/25 14:55:57;;;;;;;4.07;1.42;;;;;;;;;;5046614;28;20048;-61
2021/12/25 14:58:26;;;;;;;4.78;1.65;;;;;;;;;;5053183;28;20522;-62
2021/12/25 15:01:22;;;;;;;6.50;1.77;;;;;;;;;;5050785;28;20043;-61
2021/12/25 15:04:09;;;;;;;6.57;2.28;;;;;;;;;;5039775;28;20403;-61
2021/12/25 15:06:40;;;;;;;5.60;1.92;;;0.30;99.90;;;;;;5052452;28;20522;-61
2021/12/25 15:09:11;;;;;;;5.00;1.98;;;;;;;;;;5053529;28;20037;-61
2021/12/25 15:11:46;;;;;;;6.93;1.50;;;;;;;;;;5050018;28;20037;-61
2021/12/25 15:14:13;;;;;;;5.90;1.50;;;;;;;;;;5053605;28;20071;-61
2021/12/25 15:16:58;;;;;;;5.40;1.30;;;;;;;;;;5049914;28;20128;-61
2021/12/25 15:19:28;;;;;;;6.13;1.92;;;;;;;;;;5071849;28;20415;-60
2021/12/25 15:21:54;;;;;;;5.03;1.40;;;;;;;;;;5052428;28;20198;-61
2021/12/25 15:24:22;;;;;;;4.70;1.67;;;-0.30;99.90;;;;;;5044985;28;20030;-61
2021/12/25 15:26:53;;;;;;;6.85;1.92;;;;;;;;;;5043240;28;20431;-61
2021/12/25 15:29:19;;;;;;;4.90;2.05;;;-1.10;99.90;;;;;;5047844;28;20029;-61
2021/12/25 15:31:46;;;;;;;6.13;2.00;;;;;;;;;;5047555;28;20045;-60
2021/12/25 15:34:16;;;;;;;7.07;2.85;;;;;;;;;;5048213;28;20048;-60
2021/12/25 15:36:45;;;;;;;6.72;2.60;;;-1.60;99.90;;;;;;5058179;28;20049;-61